CheckWX is a tool to help pilots better visualize weather data.  It is not intended as a substitute for an official pre-flight weather briefing.

16:42:27 UTC

EKCH METAR
Copenhagen Kastrup Airport
Copenhagen, Denmark
Current

22 mins ago

EKCH 221620Z AUTO 22007KT 9999 RA FEW033/// OVC045/// 16/14 Q1020 BECMG 3000 RADZ BR BKN008
Observed
Jul-22 @ 16:20 UTC
Wind
  • 220° at 7 KTS
Visibility
10,000+ meters
Flight Rules
VFR
Conditions
Rain
Cloud Levels
  • Few at 3,300' AGL
  • Overcast at 4,500' AGL
Temperature
16°C / 61°F
Dewpoint
14°C / 57°F
Humidity
88%
Altimeter
30.12" Hg
Pressure
1019.92 hPa
Previous

52 mins ago

EKCH 221550Z AUTO 23011KT 9999 -SHRA FEW051/// OVC066/// 16/14 Q1020 NOSIG
Observed
Jul-22 @ 15:50 UTC
Wind
  • 230° at 11 KTS
Visibility
10,000+ meters
Flight Rules
VFR
Conditions
Light Rain
Cloud Levels
  • Few at 5,100' AGL
  • Overcast at 6,600' AGL
Temperature
16°C / 61°F
Dewpoint
14°C / 57°F
Humidity
88%
Altimeter
30.12" Hg
Pressure
1019.92 hPa
Previous

1 hour ago

EKCH 221520Z AUTO 24012KT 9999 -SHRA OVC055/// 16/14 Q1020 NOSIG
Observed
Jul-22 @ 15:20 UTC
Wind
  • 240° at 12 KTS
Visibility
10,000+ meters
Flight Rules
VFR
Conditions
Light Rain
Cloud Levels
  • Overcast at 5,500' AGL
Temperature
16°C / 61°F
Dewpoint
14°C / 57°F
Humidity
88%
Altimeter
30.12" Hg
Pressure
1019.92 hPa